Time;durP1;ratioP1;P1;durP2;ratioP2;P2;SDS_P1;SDS_P2;PMS_P1;PMS_P2;Temp;Humidity;BMP_temperature;BMP_pressure;BME280_temperature;BME280_humidity;BME280_pressure;Samples;Min_cycle;Max_cycle;Signal;HPM_P1;HPM_P2
2022/07/15 00:01:34;;;;;;;;;;;19.90;49.60;;;;;;5140845;27;19953;-49
2022/07/15 00:04:00;;;;;;;;;;;20.00;51.30;;;;;;5146791;27;19956;-46
2022/07/15 00:06:26;;;;;;;;;;;20.90;51.80;;;;;;5140713;27;20011;-54
2022/07/15 00:08:52;;;;;;;;;;;21.80;49.80;;;;;;5140031;27;20013;-46
2022/07/15 00:11:17;;;;;;;;;;;21.20;49.70;;;;;;5146384;27;19923;-47
2022/07/15 00:13:43;;;;;;;;;;;20.40;50.30;;;;;;5141157;27;19927;-47
2022/07/15 00:16:09;;;;;;;;;;;20.30;49.90;;;;;;5122742;27;19942;-46
2022/07/15 00:18:35;;;;;;;;;;;19.90;49.80;;;;;;5146362;27;20386;-47
2022/07/15 00:21:01;;;;;;;;;;;19.80;49.50;;;;;;5140905;27;19976;-47
2022/07/15 00:23:26;;;;;;;;;;;20.00;51.40;;;;;;5146592;27;19923;-46
2022/07/15 00:25:52;;;;;;;;;;;21.00;51.60;;;;;;5140011;27;19966;-47
2022/07/15 00:28:18;;;;;;;;;;;21.80;49.60;;;;;;5140284;27;19927;-48
2022/07/15 00:30:44;;;;;;;;;;;21.10;49.80;;;;;;5146259;27;19923;-44
2022/07/15 00:33:10;;;;;;;;;;;20.40;50.20;;;;;;5140701;27;19930;-46
2022/07/15 00:35:36;;;;;;;;;;;20.20;49.80;;;;;;5140699;27;20604;-46
2022/07/15 00:38:03;;;;;;;;;;;20.00;49.50;;;;;;5145575;27;19975;-47
2022/07/15 00:40:28;;;;;;;;;;;19.90;49.20;;;;;;5140913;27;20021;-46
2022/07/15 00:42:54;;;;;;;;;;;20.70;51.70;;;;;;5148670;27;20458;-53
2022/07/15 00:45:21;;;;;;;;;;;21.50;50.30;;;;;;5124942;27;19923;-49
2022/07/15 00:47:47;;;;;;;;;;;21.40;49.50;;;;;;5144068;27;19923;-46
2022/07/15 00:50:13;;;;;;;;;;;20.60;50.30;;;;;;5149785;27;19923;-46
2022/07/15 00:52:41;;;;;;;;;;;20.10;50.20;;;;;;5144148;27;19973;-47
2022/07/15 00:55:08;;;;;;;;;;;20.20;49.20;;;;;;5144214;27;19930;-46
2022/07/15 00:57:35;;;;;;;;;;;19.90;49.10;;;;;;5149383;27;19934;-48
2022/07/15 01:00:01;;;;;;;;;;;19.90;50.80;;;;;;5124007;27;20061;-49
2022/07/15 01:02:27;;;;;;;;;;;20.80;51.50;;;;;;5143641;27;20014;-53
2022/07/15 01:04:53;;;;;;;;;;;21.80;49.60;;;;;;5148542;27;20224;-47
2022/07/15 01:07:18;;;;;;;;;;;21.10;49.60;;;;;;5125674;27;20489;-49
2022/07/15 01:09:44;;;;;;;;;;;20.50;49.70;;;;;;5131051;27;19923;-45
2022/07/15 01:12:11;;;;;;;;;;;20.10;49.90;;;;;;5144111;27;19931;-49
2022/07/15 01:14:36;;;;;;;;;;;19.90;49.50;;;;;;5143440;27;19933;-47
2022/07/15 01:17:06;;;;;;;;;;;20.00;50.70;;;;;;5149392;27;20378;-46
2022/07/15 01:19:31;;;;;;;;;;;20.90;51.40;;;;;;5121637;27;19923;-46
2022/07/15 01:21:57;;;;;;;;;;;21.80;49.40;;;;;;5142078;27;19931;-47
2022/07/15 01:24:24;;;;;;;;;;;21.00;49.60;;;;;;5148883;27;19923;-49
2022/07/15 01:26:49;;;;;;;;;;;20.40;50.00;;;;;;5143671;27;19971;-50
2022/07/15 01:29:15;;;;;;;;;;;20.20;49.60;;;;;;5149046;27;19927;-45
2022/07/15 01:31:41;;;;;;;;;;;19.90;49.50;;;;;;5143670;27;19931;-49
2022/07/15 01:34:07;;;;;;;;;;;19.80;49.10;;;;;;5143455;27;19923;-47
2022/07/15 01:36:33;;;;;;;;;;;20.20;51.40;;;;;;5149166;27;19927;-46
2022/07/15 01:38:59;;;;;;;;;;;21.30;50.30;;;;;;5124112;27;19930;-47
2022/07/15 01:41:25;;;;;;;;;;;21.80;48.70;;;;;;5142774;27;20300;-46
2022/07/15 01:43:51;;;;;;;;;;;20.80;49.50;;;;;;5148812;27;19934;-45
2022/07/15 01:46:16;;;;;;;;;;;20.30;49.50;;;;;;5143452;27;20362;-47
2022/07/15 01:51:26;;;;;;;;;;;19.80;50.40;;;;;;5148344;27;19977;-47
2022/07/15 01:53:52;;;;;;;;;;;20.80;51.00;;;;;;5142924;27;19923;-47
2022/07/15 01:56:18;;;;;;;;;;;21.80;48.80;;;;;;5148767;27;19958;-46
2022/07/15 01:58:44;;;;;;;;;;;20.90;49.40;;;;;;5122484;27;19931;-45
2022/07/15 02:01:10;;;;;;;;;;;20.30;49.70;;;;;;5142921;27;19946;-45
2022/07/15 02:03:35;;;;;;;;;;;20.00;49.30;;;;;;5148616;27;19979;-45
2022/07/15 02:06:01;;;;;;;;;;;19.90;48.90;;;;;;5143145;27;19927;-48
2022/07/15 02:08:27;;;;;;;;;;;20.00;50.50;;;;;;5143266;27;19924;-48
2022/07/15 02:10:53;;;;;;;;;;;20.90;50.80;;;;;;5148126;27;20341;-47
2022/07/15 02:13:18;;;;;;;;;;;21.80;48.50;;;;;;5143091;27;19927;-46
2022/07/15 02:15:44;;;;;;;;;;;20.90;49.30;;;;;;5147471;27;19940;-48
2022/07/15 02:18:10;;;;;;;;;;;20.30;49.40;;;;;;5142174;27;19934;-48
2022/07/15 02:20:36;;;;;;;;;;;20.20;48.90;;;;;;5142821;27;19923;-47
2022/07/15 02:23:02;;;;;;;;;;;19.80;49.20;;;;;;5148303;27;19931;-48
2022/07/15 02:25:29;;;;;;;;;;;19.90;50.50;;;;;;5143031;27;20017;-46
2022/07/15 02:28:01;;;;;;;;;;;21.00;50.50;;;;;;5142562;27;19923;-47
2022/07/15 02:30:27;;;;;;;;;;;21.80;48.60;;;;;;5148290;27;20352;-48
2022/07/15 02:32:53;;;;;;;;;;;20.80;49.30;;;;;;5142810;27;19923;-46
2022/07/15 02:35:19;;;;;;;;;;;20.30;49.40;;;;;;5142467;27;20313;-55
2022/07/15 02:37:45;;;;;;;;;;;19.90;49.20;;;;;;5146705;27;19926;-45
2022/07/15 02:40:11;;;;;;;;;;;19.80;49.00;;;;;;5142675;27;20337;-47
2022/07/15 02:42:37;;;;;;;;;;;20.00;50.60;;;;;;5129372;27;19981;-50
2022/07/15 02:45:03;;;;;;;;;;;20.90;50.50;;;;;;5142460;27;20565;-48
2022/07/15 02:47:28;;;;;;;;;;;21.80;48.50;;;;;;5141764;27;20400;-49
2022/07/15 02:49:55;;;;;;;;;;;20.80;49.30;;;;;;5147814;27;19923;-45
2022/07/15 02:52:21;;;;;;;;;;;20.20;49.40;;;;;;5141394;27;20283;-49
2022/07/15 02:54:46;;;;;;;;;;;20.00;49.10;;;;;;5141353;27;19930;-45
2022/07/15 02:57:13;;;;;;;;;;;20.00;50.80;;;;;;5147604;27;19923;-46
2022/07/15 02:59:38;;;;;;;;;;;20.90;50.50;;;;;;5142245;27;19927;-47
2022/07/15 03:02:04;;;;;;;;;;;21.70;48.30;;;;;;5147772;27;19979;-47
2022/07/15 03:04:30;;;;;;;;;;;20.60;49.60;;;;;;5140866;27;19981;-46
2022/07/15 03:06:56;;;;;;;;;;;20.20;49.30;;;;;;5142138;27;19930;-45
2022/07/15 03:09:22;;;;;;;;;;;19.90;49.10;;;;;;5147607;27;19923;-45
2022/07/15 03:11:47;;;;;;;;;;;19.70;49.00;;;;;;5140751;27;20290;-49
2022/07/15 03:14:13;;;;;;;;;;;20.40;51.10;;;;;;5141443;27;20183;-46
2022/07/15 03:16:39;;;;;;;;;;;21.50;49.00;;;;;;5147621;27;19930;-47
2022/07/15 03:19:05;;;;;;;;;;;21.30;48.50;;;;;;5141926;27;20431;-50
2022/07/15 03:21:30;;;;;;;;;;;20.40;49.20;;;;;;5147509;27;20030;-46
2022/07/15 03:23:56;;;;;;;;;;;20.10;49.10;;;;;;5120656;27;20415;-47
2022/07/15 03:26:22;;;;;;;;;;;19.90;48.70;;;;;;5141799;27;19937;-51
2022/07/15 03:28:48;;;;;;;;;;;20.00;51.10;;;;;;5146401;27;19930;-48
2022/07/15 03:31:14;;;;;;;;;;;21.00;50.20;;;;;;5140587;27;19927;-47
2022/07/15 03:33:40;;;;;;;;;;;21.80;48.00;;;;;;5141432;27;20017;-47
2022/07/15 03:36:05;;;;;;;;;;;20.80;49.00;;;;;;5147124;27;19933;-48
2022/07/15 03:38:31;;;;;;;;;;;20.20;49.20;;;;;;5141590;27;19923;-47
2022/07/15 03:40:57;;;;;;;;;;;19.90;49.00;;;;;;5146466;27;20030;-51
2022/07/15 03:43:26;;;;;;;;;;;19.80;49.70;;;;;;5141825;27;19923;-47
2022/07/15 03:45:52;;;;;;;;;;;20.70;50.90;;;;;;5141624;27;19937;-45
2022/07/15 03:48:18;;;;;;;;;;;21.70;48.50;;;;;;5145881;27;20422;-45
2022/07/15 03:50:44;;;;;;;;;;;20.80;49.00;;;;;;5140802;27;19927;-46
2022/07/15 03:53:10;;;;;;;;;;;20.30;49.30;;;;;;5141263;27;20133;-50
2022/07/15 03:55:37;;;;;;;;;;;20.00;48.80;;;;;;5146905;27;19923;-46
2022/07/15 03:58:03;;;;;;;;;;;19.70;49.10;;;;;;5141346;27;19923;-48
2022/07/15 04:00:29;;;;;;;;;;;20.10;51.10;;;;;;5141740;27;19946;-54
2022/07/15 04:02:55;;;;;;;;;;;21.10;49.90;;;;;;5146087;27;19927;-47
2022/07/15 04:05:21;;;;;;;;;;;21.60;48.10;;;;;;5140784;27;20247;-46
2022/07/15 04:07:47;;;;;;;;;;;20.40;49.30;;;;;;5145353;27;19927;-47
2022/07/15 04:10:13;;;;;;;;;;;20.00;49.50;;;;;;5140916;27;20398;-47
2022/07/15 04:12:38;;;;;;;;;;;20.00;48.60;;;;;;5141222;27;19930;-45
2022/07/15 04:15:04;;;;;;;;;;;19.80;49.50;;;;;;5146485;27;19922;-49
2022/07/15 04:17:30;;;;;;;;;;;20.60;50.90;;;;;;5140554;27;19930;-47
2022/07/15 04:19:56;;;;;;;;;;;21.60;48.80;;;;;;5140696;27;19931;-46
2022/07/15 04:22:23;;;;;;;;;;;20.90;48.90;;;;;;5146309;27;19947;-46
2022/07/15 04:24:49;;;;;;;;;;;20.30;49.10;;;;;;5139944;27;19924;-45
2022/07/15 04:27:15;;;;;;;;;;;19.80;49.20;;;;;;5145679;27;19927;-46
2022/07/15 04:29:41;;;;;;;;;;;19.80;48.50;;;;;;5140629;27;19923;-47
2022/07/15 04:32:06;;;;;;;;;;;20.40;51.20;;;;;;5140888;27;19930;-46
2022/07/15 04:34:32;;;;;;;;;;;21.30;49.50;;;;;;5146366;27;19974;-45
2022/07/15 04:36:58;;;;;;;;;;;21.60;48.30;;;;;;5140126;27;20539;-46
2022/07/15 04:39:24;;;;;;;;;;;20.80;48.80;;;;;;5141021;27;19971;-48
2022/07/15 04:41:51;;;;;;;;;;;20.30;48.80;;;;;;5146029;27;20286;-49
2022/07/15 04:44:20;;;;;;;;;;;19.90;48.70;;;;;;5139208;27;19922;-48
2022/07/15 04:46:45;;;;;;;;;;;19.70;49.00;;;;;;5145933;27;19979;-51
2022/07/15 04:51:55;;;;;;;;;;;21.60;48.90;;;;;;5140807;27;19930;-48
2022/07/15 04:54:21;;;;;;;;;;;20.90;49.00;;;;;;5145834;27;20279;-45
2022/07/15 04:56:47;;;;;;;;;;;20.30;49.30;;;;;;5140472;27;19931;-46
2022/07/15 04:59:13;;;;;;;;;;;20.10;48.80;;;;;;5140494;27;20233;-48
2022/07/15 05:01:38;;;;;;;;;;;19.80;49.30;;;;;;5144727;27;19976;-48
2022/07/15 05:04:04;;;;;;;;;;;20.60;51.00;;;;;;5139772;27;20385;-46
2022/07/15 05:06:30;;;;;;;;;;;21.60;48.70;;;;;;5140428;27;19927;-44
2022/07/15 05:08:56;;;;;;;;;;;21.00;48.90;;;;;;5145970;27;19923;-46
2022/07/15 05:11:21;;;;;;;;;;;20.30;49.40;;;;;;5140479;27;19962;-45
2022/07/15 05:13:47;;;;;;;;;;;20.00;49.10;;;;;;5145467;27;19931;-46
2022/07/15 05:16:13;;;;;;;;;;;19.80;48.80;;;;;;5140750;27;20370;-46
2022/07/15 05:18:40;;;;;;;;;;;20.40;51.20;;;;;;5140294;27;20398;-46
2022/07/15 05:21:06;;;;;;;;;;;21.40;49.30;;;;;;5144200;27;19929;-44
2022/07/15 05:23:31;;;;;;;;;;;21.20;48.50;;;;;;5139857;27;19922;-47
2022/07/15 05:25:57;;;;;;;;;;;20.40;49.10;;;;;;5120459;27;19963;-44
2022/07/15 05:28:23;;;;;;;;;;;20.20;48.90;;;;;;5147842;27;19966;-45
2022/07/15 05:30:49;;;;;;;;;;;19.80;49.20;;;;;;5143390;27;19978;-48
2022/07/15 05:33:15;;;;;;;;;;;19.80;48.60;;;;;;5148017;27;19923;-55
2022/07/15 05:35:41;;;;;;;;;;;20.40;51.10;;;;;;5145143;27;19949;-45
2022/07/15 05:38:06;;;;;;;;;;;21.50;49.00;;;;;;5142386;27;19923;-48
2022/07/15 05:40:33;;;;;;;;;;;21.20;48.60;;;;;;5128570;27;20268;-45
2022/07/15 05:42:59;;;;;;;;;;;20.40;49.20;;;;;;5143243;27;19927;-48
2022/07/15 05:45:25;;;;;;;;;;;20.00;49.30;;;;;;5143555;27;20482;-48
2022/07/15 05:47:50;;;;;;;;;;;19.80;49.20;;;;;;5149119;27;19931;-45
2022/07/15 05:50:16;;;;;;;;;;;19.80;48.10;;;;;;5142912;27;19923;-48
2022/07/15 05:52:42;;;;;;;;;;;20.30;51.00;;;;;;5145374;27;19923;-56
2022/07/15 05:55:08;;;;;;;;;;;21.30;49.50;;;;;;5147010;27;20409;-48
2022/07/15 05:57:34;;;;;;;;;;;21.80;47.90;;;;;;5141775;27;19991;-47
2022/07/15 06:00:00;;;;;;;;;;;20.80;48.90;;;;;;5148397;27;19934;-46
2022/07/15 06:02:25;;;;;;;;;;;20.00;49.30;;;;;;5143324;27;19923;-45
2022/07/15 06:04:51;;;;;;;;;;;19.90;49.00;;;;;;5143219;27;19979;-48
2022/07/15 06:07:17;;;;;;;;;;;20.00;50.10;;;;;;5148643;27;19927;-50
2022/07/15 06:09:43;;;;;;;;;;;20.90;50.20;;;;;;5138639;27;19927;-47
2022/07/15 06:12:09;;;;;;;;;;;21.80;47.90;;;;;;5143144;27;19979;-49
2022/07/15 06:14:35;;;;;;;;;;;20.70;49.10;;;;;;5147558;27;19923;-46
2022/07/15 06:17:00;;;;;;;;;;;20.30;49.10;;;;;;5142138;27;19931;-47
2022/07/15 06:19:26;;;;;;;;;;;20.00;49.00;;;;;;5129761;27;19923;-45
2022/07/15 06:21:52;;;;;;;;;;;19.80;48.70;;;;;;5142761;27;19946;-46
2022/07/15 06:24:19;;;;;;;;;;;20.30;50.70;;;;;;5124384;27;20033;-46
2022/07/15 06:26:44;;;;;;;;;;;21.30;49.30;;;;;;5147937;27;19923;-45
2022/07/15 06:29:10;;;;;;;;;;;21.70;47.60;;;;;;5142593;27;20267;-48
2022/07/15 06:31:36;;;;;;;;;;;20.70;48.60;;;;;;5142727;27;19927;-48
2022/07/15 06:34:02;;;;;;;;;;;20.20;48.70;;;;;;5146661;27;19934;-45
2022/07/15 06:36:27;;;;;;;;;;;19.80;48.90;;;;;;5142262;27;19972;-46
2022/07/15 06:38:54;;;;;;;;;;;19.80;48.80;;;;;;5146850;27;20022;-47
2022/07/15 06:41:19;;;;;;;;;;;20.70;50.00;;;;;;5142629;27;20001;-46
2022/07/15 06:43:45;;;;;;;;;;;21.60;47.80;;;;;;5142439;27;19923;-45
2022/07/15 06:46:11;;;;;;;;;;;21.00;48.00;;;;;;5128077;27;19945;-46
2022/07/15 06:48:38;;;;;;;;;;;20.40;48.60;;;;;;5142541;27;19977;-51
2022/07/15 06:51:04;;;;;;;;;;;20.00;48.80;;;;;;5141416;27;20446;-48
2022/07/15 06:53:30;;;;;;;;;;;19.90;48.20;;;;;;5146608;27;19934;-46
2022/07/15 06:55:55;;;;;;;;;;;19.80;48.00;;;;;;5123550;27;20019;-49
2022/07/15 06:58:21;;;;;;;;;;;20.30;50.10;;;;;;5147909;27;19927;-52
2022/07/15 07:00:47;;;;;;;;;;;21.40;48.10;;;;;;5120071;27;19924;-47
2022/07/15 07:03:13;;;;;;;;;;;21.60;47.00;;;;;;5141952;27;19935;-47
2022/07/15 07:05:39;;;;;;;;;;;20.60;48.10;;;;;;5147566;27;20427;-48
2022/07/15 07:08:05;;;;;;;;;;;20.20;48.40;;;;;;5142060;27;19922;-47
2022/07/15 07:10:31;;;;;;;;;;;20.10;48.00;;;;;;5140430;27;20112;-49
2022/07/15 07:12:56;;;;;;;;;;;19.90;49.60;;;;;;5146818;27;20296;-50
2022/07/15 07:15:23;;;;;;;;;;;21.00;48.80;;;;;;5141890;27;19962;-52
2022/07/15 07:17:51;;;;;;;;;;;21.90;46.40;;;;;;5145159;27;19971;-54
2022/07/15 07:20:16;;;;;;;;;;;20.80;47.70;;;;;;5145305;27;19923;-48
2022/07/15 07:22:42;;;;;;;;;;;20.30;48.10;;;;;;5141174;27;19927;-49
2022/07/15 07:25:08;;;;;;;;;;;19.90;48.10;;;;;;5127471;27;19924;-45
2022/07/15 07:27:34;;;;;;;;;;;19.70;48.20;;;;;;5141174;27;19927;-51
2022/07/15 07:30:02;;;;;;;;;;;20.20;49.60;;;;;;5140345;27;19938;-49
2022/07/15 07:32:28;;;;;;;;;;;21.30;47.90;;;;;;5147084;27;20075;-45
2022/07/15 07:34:54;;;;;;;;;;;21.60;46.40;;;;;;5141907;27;19923;-46
2022/07/15 07:37:20;;;;;;;;;;;20.60;47.90;;;;;;5141547;27;19934;-49
2022/07/15 07:39:46;;;;;;;;;;;20.10;48.20;;;;;;5146746;27;19923;-50
2022/07/15 07:42:11;;;;;;;;;;;19.80;48.30;;;;;;5141626;27;20067;-49
2022/07/15 07:44:37;;;;;;;;;;;19.90;47.60;;;;;;5147070;27;19927;-47
2022/07/15 07:47:03;;;;;;;;;;;20.00;48.80;;;;;;5139924;27;19934;-48
2022/07/15 07:49:29;;;;;;;;;;;21.00;48.30;;;;;;5140760;27;19973;-49
2022/07/15 07:51:54;;;;;;;;;;;21.80;46.10;;;;;;5146411;27;19923;-49
2022/07/15 07:54:21;;;;;;;;;;;20.90;47.40;;;;;;5141558;27;20188;-45
2022/07/15 07:56:47;;;;;;;;;;;20.30;47.90;;;;;;5141348;27;19923;-49
2022/07/15 07:59:13;;;;;;;;;;;20.10;47.80;;;;;;5110702;27;20286;-49
2022/07/15 08:01:38;;;;;;;;;;;20.00;47.50;;;;;;5141546;27;19927;-45
2022/07/15 08:04:04;;;;;;;;;;;20.00;48.20;;;;;;5146310;27;19984;-47
2022/07/15 08:06:30;;;;;;;;;;;20.90;48.10;;;;;;5139946;27;19923;-48
2022/07/15 08:08:56;;;;;;;;;;;21.80;46.00;;;;;;5141157;27;19923;-47
2022/07/15 08:11:21;;;;;;;;;;;20.90;47.10;;;;;;5146724;27;19979;-46
2022/07/15 08:13:47;;;;;;;;;;;20.40;47.40;;;;;;5141105;27;19923;-44
2022/07/15 08:16:13;;;;;;;;;;;20.00;47.80;;;;;;5140887;27;19987;-48
2022/07/15 08:18:39;;;;;;;;;;;19.80;47.40;;;;;;5146111;27;21286;-47
2022/07/15 08:21:05;;;;;;;;;;;20.20;49.00;;;;;;5140946;27;19978;-48
2022/07/15 08:23:32;;;;;;;;;;;21.40;46.60;;;;;;5144987;27;19930;-48
2022/07/15 08:25:58;;;;;;;;;;;21.60;45.60;;;;;;5140455;27;20025;-48
2022/07/15 08:28:24;;;;;;;;;;;20.60;47.10;;;;;;5140794;27;19968;-49
2022/07/15 08:30:50;;;;;;;;;;;20.30;47.00;;;;;;5146205;27;19944;-46
2022/07/15 08:33:16;;;;;;;;;;;20.00;47.30;;;;;;5122512;27;19923;-50
2022/07/15 08:35:42;;;;;;;;;;;20.00;47.60;;;;;;5140323;27;19980;-48
2022/07/15 08:38:08;;;;;;;;;;;20.80;47.70;;;;;;5146190;27;20391;-47
2022/07/15 08:40:34;;;;;;;;;;;21.80;45.30;;;;;;5122100;27;20010;-48
2022/07/15 08:43:00;;;;;;;;;;;20.90;46.40;;;;;;5121443;27;19927;-52
2022/07/15 08:45:26;;;;;;;;;;;20.40;47.20;;;;;;5125478;27;19930;-46
2022/07/15 08:47:52;;;;;;;;;;;20.20;47.00;;;;;;5140566;27;20301;-46
2022/07/15 08:50:18;;;;;;;;;;;20.00;47.10;;;;;;5146045;27;19923;-45
2022/07/15 08:52:44;;;;;;;;;;;20.30;48.50;;;;;;5140666;27;19927;-45
2022/07/15 08:55:10;;;;;;;;;;;21.40;46.20;;;;;;5140251;27;19929;-46
2022/07/15 08:57:36;;;;;;;;;;;21.60;45.10;;;;;;5146029;27;19927;-47
2022/07/15 09:00:03;;;;;;;;;;;20.50;46.80;;;;;;5139340;27;20018;-44
2022/07/15 09:02:29;;;;;;;;;;;20.10;47.30;;;;;;5140175;27;20007;-46
2022/07/15 09:05:14;;;;;;;;;;;20.00;47.00;;;;;;5149282;27;19932;-44
2022/07/15 09:08:10;;;;;;;;;;;19.90;47.00;;;;;;5143845;27;19937;-46
2022/07/15 09:10:42;;;;;;;;;;;20.50;48.00;;;;;;5122396;27;20388;-46
2022/07/15 09:13:09;;;;;;;;;;;21.80;45.10;;;;;;5148712;27;19969;-48
2022/07/15 09:15:35;;;;;;;;;;;21.10;46.20;;;;;;5144139;27;19923;-46
2022/07/15 09:18:02;;;;;;;;;;;20.50;47.00;;;;;;5120936;27;19923;-49
2022/07/15 09:20:28;;;;;;;;;;;20.40;46.60;;;;;;5148218;27;19930;-47
2022/07/15 09:22:57;;;;;;;;;;;19.90;47.10;;;;;;5143407;27;19924;-49
2022/07/15 09:25:23;;;;;;;;;;;20.00;46.80;;;;;;5149025;27;19922;-46
2022/07/15 09:27:49;;;;;;;;;;;20.70;47.70;;;;;;5143852;27;19927;-48
2022/07/15 09:36:02;;;;;;;;;;;20.40;47.00;;;;;;5148772;27;19950;-48
2022/07/15 09:38:35;;;;;;;;;;;20.10;47.30;;;;;;5124936;27;20003;-45
2022/07/15 09:41:01;;;;;;;;;;;19.90;47.20;;;;;;5146925;27;20014;-56
2022/07/15 09:43:27;;;;;;;;;;;20.30;48.40;;;;;;5145784;27;19935;-46
2022/07/15 09:45:59;;;;;;;;;;;21.50;45.90;;;;;;5143434;27;19974;-46
2022/07/15 09:48:28;;;;;;;;;;;21.30;45.40;;;;;;5148431;27;19929;-47
2022/07/15 09:51:00;;;;;;;;;;;20.40;47.10;;;;;;5143182;27;19930;-45
2022/07/15 09:53:25;;;;;;;;;;;20.20;46.90;;;;;;5143294;27;19923;-46
2022/07/15 09:55:51;;;;;;;;;;;20.00;47.00;;;;;;5147256;27;20135;-47
2022/07/15 09:58:18;;;;;;;;;;;20.10;48.10;;;;;;5124449;27;19927;-50
2022/07/15 10:00:43;;;;;;;;;;;21.20;46.70;;;;;;5123987;27;20382;-46
2022/07/15 10:03:09;;;;;;;;;;;21.80;44.80;;;;;;5148879;27;19924;-49
2022/07/15 10:05:35;;;;;;;;;;;20.80;46.50;;;;;;5143158;27;20267;-52
2022/07/15 10:08:01;;;;;;;;;;;20.30;47.00;;;;;;5148080;27;19930;-50
2022/07/15 10:10:27;;;;;;;;;;;20.00;47.10;;;;;;5123594;27;20365;-47
2022/07/15 10:13:09;;;;;;;;;;;19.80;47.00;;;;;;5142281;27;19923;-52
2022/07/15 10:15:44;;;;;;;;;;;19.90;47.70;;;;;;5128420;27;19949;-49
2022/07/15 10:18:13;;;;;;;;;;;21.00;46.80;;;;;;5142676;27;20014;-47
2022/07/15 10:20:51;;;;;;;;;;;21.80;44.90;;;;;;5142777;27;19927;-46
2022/07/15 10:23:28;;;;;;;;;;;20.80;46.50;;;;;;5148427;27;19937;-44
2022/07/15 10:25:57;;;;;;;;;;;20.40;46.60;;;;;;5123737;27;19927;-46
2022/07/15 10:28:29;;;;;;;;;;;20.00;47.20;;;;;;5142991;27;19923;-46
2022/07/15 10:31:14;;;;;;;;;;;19.90;46.90;;;;;;5148066;27;19929;-47
2022/07/15 10:33:39;;;;;;;;;;;20.20;48.20;;;;;;5141478;27;20204;-46
2022/07/15 10:36:05;;;;;;;;;;;21.50;45.80;;;;;;5142214;27;20450;-49
2022/07/15 10:38:37;;;;;;;;;;;21.60;45.00;;;;;;5147957;27;19923;-43
2022/07/15 10:41:09;;;;;;;;;;;20.70;46.50;;;;;;5142416;27;19945;-46
2022/07/15 10:43:38;;;;;;;;;;;20.20;47.10;;;;;;5142121;27;19927;-48
2022/07/15 10:46:04;;;;;;;;;;;20.10;47.10;;;;;;5147806;27;20007;-45
2022/07/15 10:48:30;;;;;;;;;;;19.90;47.00;;;;;;5142388;27;19933;-46
2022/07/15 10:50:56;;;;;;;;;;;20.30;48.20;;;;;;5141070;27;20039;-47
2022/07/15 10:53:24;;;;;;;;;;;21.40;46.30;;;;;;5128190;27;21278;-45
2022/07/15 10:55:50;;;;;;;;;;;21.70;45.20;;;;;;5142183;27;19967;-47
2022/07/15 10:58:19;;;;;;;;;;;20.70;46.80;;;;;;5128155;27;19923;-47
2022/07/15 11:00:46;;;;;;;;;;;20.50;47.00;;;;;;5142475;27;19923;-49
2022/07/15 11:03:13;;;;;;;;;;;20.30;47.10;;;;;;5141869;27;19923;-46
2022/07/15 11:05:46;;;;;;;;;;;20.10;46.90;;;;;;5147546;27;20438;-47
2022/07/15 11:08:31;;;;;;;;;;;20.10;48.70;;;;;;5141347;27;20029;-46
2022/07/15 11:10:57;;;;;;;;;;;21.30;46.60;;;;;;5141087;27;19923;-49
2022/07/15 11:13:32;;;;;;;;;;;21.60;45.40;;;;;;5147175;27;20358;-45
2022/07/15 11:15:58;;;;;;;;;;;20.50;47.40;;;;;;5142159;27;20000;-46
2022/07/15 11:18:23;;;;;;;;;;;20.30;47.30;;;;;;5123159;27;20010;-47
2022/07/15 11:20:49;;;;;;;;;;;20.20;47.20;;;;;;5146758;27;19923;-45
2022/07/15 11:23:17;;;;;;;;;;;19.90;47.50;;;;;;5141769;27;19933;-46
2022/07/15 11:25:43;;;;;;;;;;;19.80;47.30;;;;;;5141077;27;19923;-45
2022/07/15 11:28:09;;;;;;;;;;;20.50;48.30;;;;;;5145679;27;19930;-48
2022/07/15 11:30:35;;;;;;;;;;;21.60;46.20;;;;;;5141151;27;20018;-50
2022/07/15 11:33:01;;;;;;;;;;;21.60;45.50;;;;;;5147019;27;19927;-46
2022/07/15 11:35:28;;;;;;;;;;;20.70;47.00;;;;;;5141577;27;19927;-46
2022/07/15 11:38:00;;;;;;;;;;;20.20;47.50;;;;;;5141593;27;20394;-51
2022/07/15 11:46:00;;;;;;;;;;;20.20;48.40;;;;;;5140400;27;19929;-47
2022/07/15 11:48:25;;;;;;;;;;;21.40;46.60;;;;;;5146211;27;20030;-50
2022/07/15 11:50:52;;;;;;;;;;;21.80;45.30;;;;;;5141322;27;19924;-45
2022/07/15 11:53:18;;;;;;;;;;;20.80;46.90;;;;;;5141538;27;19923;-48
2022/07/15 11:55:48;;;;;;;;;;;20.40;47.00;;;;;;5146849;27;20390;-49
2022/07/15 11:58:14;;;;;;;;;;;20.10;47.30;;;;;;5140701;27;19971;-45
2022/07/15 12:00:46;;;;;;;;;;;20.20;47.00;;;;;;5141348;27;20595;-49
2022/07/15 12:03:11;;;;;;;;;;;19.90;47.30;;;;;;5145880;27;19955;-54
2022/07/15 12:05:37;;;;;;;;;;;20.30;48.40;;;;;;5121530;27;20001;-48
2022/07/15 12:08:04;;;;;;;;;;;21.50;46.50;;;;;;5145867;27;19934;-53
2022/07/15 12:10:33;;;;;;;;;;;21.60;45.60;;;;;;5142356;27;20300;-46
2022/07/15 12:13:01;;;;;;;;;;;20.70;47.20;;;;;;5141048;27;20006;-48
2022/07/15 12:15:28;;;;;;;;;;;20.30;47.50;;;;;;5146126;27;19953;-51
2022/07/15 12:17:55;;;;;;;;;;;20.00;47.50;;;;;;5141039;27;20467;-46
2022/07/15 12:20:21;;;;;;;;;;;20.00;47.10;;;;;;5141153;27;19968;-49
2022/07/15 12:23:02;;;;;;;;;;;20.10;48.30;;;;;;5126461;27;19933;-49
2022/07/15 12:25:28;;;;;;;;;;;21.10;47.30;;;;;;5140561;27;19937;-49
2022/07/15 12:27:54;;;;;;;;;;;21.80;45.30;;;;;;5140742;27;19924;-48
2022/07/15 12:30:28;;;;;;;;;;;20.80;47.10;;;;;;5146322;27;19979;-48
2022/07/15 12:33:11;;;;;;;;;;;20.30;47.40;;;;;;5122249;27;19933;-52
2022/07/15 12:35:37;;;;;;;;;;;20.10;47.50;;;;;;5140238;27;19957;-48
2022/07/15 12:38:04;;;;;;;;;;;19.90;47.30;;;;;;5149254;27;19927;-50
2022/07/15 12:40:29;;;;;;;;;;;20.10;48.70;;;;;;5143212;27;20452;-49
2022/07/15 12:42:55;;;;;;;;;;;21.30;46.80;;;;;;5147664;27;19934;-55
2022/07/15 12:45:22;;;;;;;;;;;21.80;45.30;;;;;;5145909;27;19930;-48
2022/07/15 12:48:06;;;;;;;;;;;20.80;47.00;;;;;;5144043;27;20022;-49
2022/07/15 12:50:36;;;;;;;;;;;20.40;47.20;;;;;;5149788;27;20439;-46
2022/07/15 12:53:02;;;;;;;;;;;20.00;47.70;;;;;;5143765;27;19978;-51
2022/07/15 12:55:29;;;;;;;;;;;20.10;46.90;;;;;;5144290;27;19930;-52
2022/07/15 12:58:07;;;;;;;;;;;20.00;48.70;;;;;;5149555;27;19981;-51
2022/07/15 13:00:33;;;;;;;;;;;21.20;47.20;;;;;;5142987;27;19923;-46
2022/07/15 13:03:00;;;;;;;;;;;21.90;45.30;;;;;;5143897;27;19945;-49
2022/07/15 13:05:27;;;;;;;;;;;20.80;46.90;;;;;;5149669;27;20013;-47
2022/07/15 13:07:52;;;;;;;;;;;20.30;47.60;;;;;;5123487;27;19924;-50
2022/07/15 13:10:18;;;;;;;;;;;20.20;47.50;;;;;;5143488;27;19950;-50
2022/07/15 13:12:44;;;;;;;;;;;20.20;47.30;;;;;;5130607;27;19943;-48
2022/07/15 13:15:10;;;;;;;;;;;20.00;47.20;;;;;;5143823;27;19930;-49
2022/07/15 13:17:35;;;;;;;;;;;20.70;48.30;;;;;;5129340;27;19927;-51
2022/07/15 13:20:03;;;;;;;;;;;21.80;46.00;;;;;;5143098;27;20346;-51
2022/07/15 13:22:31;;;;;;;;;;;21.20;46.60;;;;;;5143726;27;19923;-53
2022/07/15 13:24:57;;;;;;;;;;;20.40;47.50;;;;;;5129246;27;19935;-45
2022/07/15 13:27:23;;;;;;;;;;;20.30;47.30;;;;;;5143751;27;20336;-48
2022/07/15 13:29:49;;;;;;;;;;;19.90;47.90;;;;;;5143030;27;19941;-51
2022/07/15 13:32:15;;;;;;;;;;;20.10;47.10;;;;;;5130482;27;19927;-48
2022/07/15 13:34:41;;;;;;;;;;;20.00;47.20;;;;;;5143349;27;19945;-50
2022/07/15 13:37:07;;;;;;;;;;;20.40;49.00;;;;;;5146053;27;20451;-54
2022/07/15 13:39:32;;;;;;;;;;;21.60;46.70;;;;;;5125248;27;19961;-47
2022/07/15 13:41:58;;;;;;;;;;;21.80;45.90;;;;;;5143585;27;19923;-46
2022/07/15 13:44:24;;;;;;;;;;;20.80;47.20;;;;;;5148796;27;19952;-47
2022/07/15 13:46:49;;;;;;;;;;;20.50;47.40;;;;;;5143390;27;20323;-47
2022/07/15 13:49:15;;;;;;;;;;;20.30;47.30;;;;;;5123994;27;19927;-51
2022/07/15 13:51:41;;;;;;;;;;;20.00;47.70;;;;;;5148817;27;19923;-46
2022/07/15 13:54:07;;;;;;;;;;;20.00;47.40;;;;;;5142057;27;19931;-48
2022/07/15 13:56:33;;;;;;;;;;;20.20;48.30;;;;;;5144466;27;19927;-56
2022/07/15 13:59:00;;;;;;;;;;;21.30;47.40;;;;;;5146588;27;19930;-48
2022/07/15 14:01:26;;;;;;;;;;;22.00;45.60;;;;;;5143032;27;20365;-48
2022/07/15 14:03:53;;;;;;;;;;;21.00;46.90;;;;;;5148896;27;19927;-49
2022/07/15 14:06:19;;;;;;;;;;;20.50;47.40;;;;;;5142620;27;19927;-47
2022/07/15 14:08:44;;;;;;;;;;;20.30;47.50;;;;;;5143150;27;20259;-48
2022/07/15 14:11:10;;;;;;;;;;;20.10;47.60;;;;;;5148554;27;20422;-46
2022/07/15 14:13:36;;;;;;;;;;;19.90;47.70;;;;;;5141541;27;19971;-51
2022/07/15 14:16:02;;;;;;;;;;;20.30;48.80;;;;;;5142667;27;20323;-50
2022/07/15 14:18:42;;;;;;;;;;;21.30;47.40;;;;;;5148383;27;19923;-46
2022/07/15 14:21:09;;;;;;;;;;;21.80;45.80;;;;;;5142854;27;19923;-49
2022/07/15 14:23:35;;;;;;;;;;;20.80;47.40;;;;;;5146573;27;19929;-57
2022/07/15 14:26:01;;;;;;;;;;;20.50;47.60;;;;;;5144897;27;19923;-49
2022/07/15 14:28:27;;;;;;;;;;;20.40;47.30;;;;;;5142754;27;20309;-53
2022/07/15 14:30:53;;;;;;;;;;;20.10;47.70;;;;;;5147055;27;19927;-48